Terminal Aerodrome Forecast
Issued by NWS Brownsville, TX

Home | Current Version | Previous Version | Text Only | Print | Product List | Glossary On
Versions: 1 2 3 4 5 6 7 8 9 10 11 12 13 14 15 16 17 18 19
313
FTUS44 KBRO 021032 AAA
TAFHRL
TAF AMD
KHRL 021032Z 0211/0306 05007KT 1 1/2SM BR OVC025
     FM021200 36008KT 2SM BR VCSH OVC010
     FM021700 36015G22KT 5SM BR VCSH OVC018=

USA.gov is the U.S. government's official web portal to all federal, state and local government web resources and services.